This is the latest recevied weather packets stored in our database for station/object YG1CIC-13. If no packets are shown the sender has not sent any weather packets the latest 10 day(s).
| Time | Temp. | Humidity | Pressure | Rain* | Wind** | Luminosity | Snow |
|---|---|---|---|---|---|---|---|
| 1777789276 | 36.11° C | 64% | - | 0 mm | - | - | - |
| 1777788675 | 37.78° C | 61% | - | 0 mm | - | - | - |
| 1777788075 | 36.67° C | 64% | - | 0 mm | - | - | - |
| 1777787474 | 37.78° C | 62% | - | 0 mm | - | - | - |
| 1777786874 | 37.22° C | 62% | - | 0 mm | - | - | - |
| 1777786273 | 36.67° C | 62% | - | 0 mm | - | - | - |
| 1777785672 | 36.67° C | 61% | - | 0 mm | - | - | - |
| 1777785072 | 36.67° C | 61% | - | 0 mm | - | - | - |
| 1777784471 | 36.67° C | 61% | - | 0 mm | - | - | - |
| 1777783870 | 36.67° C | 60% | - | 0 mm | - | - | - |
| 1777783270 | 37.78° C | 60% | - | 0 mm | - | - | - |
| 1777782669 | 37.78° C | 59% | - | 0 mm | - | - | - |
| 1777782068 | 37.22° C | 60% | - | 0 mm | - | - | - |
| 1777781468 | 37.22° C | 61% | - | 0 mm | - | - | - |
| 1777780867 | 37.22° C | 56% | - | 0 mm | - | - | - |
| 1777780267 | 37.78° C | 56% | - | 0 mm | - | - | - |
| 1777779666 | 37.78° C | 56% | - | 0 mm | - | - | - |
| 1777779065 | 36.67° C | 58% | - | 0 mm | - | - | - |
| 1777778465 | 36.67° C | 58% | - | 0 mm | - | - | - |
| 1777777864 | 37.78° C | 56% | - | 0 mm | - | - | - |
| 1777777264 | 37.78° C | 58% | - | 0 mm | - | - | - |
| 1777776663 | 37.78° C | 57% | - | 0 mm | - | - | - |
| 1777776062 | 37.78° C | 57% | - | 0 mm | - | - | - |
| 1777775461 | 38.33° C | 54% | - | 0 mm | - | - | - |
| 1777774861 | 41.67° C | 49% | - | 0 mm | - | - | - |
* Rain latest hour (hover to see other rain measurements)
** Current wind speed in m/s (hover to see current wind gust speed)